createdAt,value
2017-11-15T00:01:15.141Z,7.10
2017-11-15T00:03:44.512Z,7.20
2017-11-15T00:06:13.564Z,7.20
2017-11-15T00:08:41.857Z,7.20
2017-11-15T00:11:10.173Z,7.20
2017-11-15T00:13:39.736Z,7.20
2017-11-15T00:16:08.096Z,7.20
2017-11-15T00:18:37.216Z,7.30
2017-11-15T00:21:06.296Z,7.30
2017-11-15T00:23:34.613Z,7.30
2017-11-15T00:26:03.680Z,7.20
2017-11-15T00:28:31.983Z,7.20
2017-11-15T00:31:01.871Z,7.20
2017-11-15T00:33:30.152Z,7.20
2017-11-15T00:35:59.425Z,7.20
2017-11-15T00:38:28.479Z,7.30
2017-11-15T00:40:56.792Z,7.30
2017-11-15T00:43:25.100Z,7.30
2017-11-15T00:45:55.125Z,7.40
2017-11-15T00:48:23.432Z,7.30
2017-11-15T00:50:52.505Z,7.40
2017-11-15T00:53:20.795Z,7.40
2017-11-15T00:55:49.197Z,7.30
2017-11-15T00:58:17.485Z,7.30
2017-11-15T01:00:45.800Z,7.40
2017-11-15T01:03:14.852Z,7.40
2017-11-15T01:05:43.141Z,7.40
2017-11-15T01:08:12.224Z,7.40
2017-11-15T01:10:40.541Z,7.50
2017-11-15T01:13:08.836Z,7.40
2017-11-15T01:15:37.152Z,7.50
2017-11-15T01:18:05.435Z,7.40
2017-11-15T01:20:33.755Z,7.30
2017-11-15T01:23:02.808Z,7.50
2017-11-15T01:25:31.103Z,7.40
2017-11-15T01:27:59.447Z,7.50
2017-11-15T01:30:29.513Z,7.50
2017-11-15T01:32:57.828Z,7.50
2017-11-15T01:35:26.139Z,7.50
2017-11-15T01:37:54.484Z,7.50
2017-11-15T01:40:22.807Z,7.50
2017-11-15T01:42:51.164Z,7.50
2017-11-15T01:45:19.450Z,7.50
2017-11-15T01:47:47.741Z,7.50
2017-11-15T01:50:16.052Z,7.50
2017-11-15T01:52:44.327Z,7.50
2017-11-15T01:55:12.982Z,7.50
2017-11-15T01:57:42.040Z,7.40
2017-11-15T02:00:11.069Z,7.40
2017-11-15T02:02:39.387Z,7.50
2017-11-15T02:05:08.640Z,7.50
2017-11-15T02:07:36.923Z,7.40
2017-11-15T02:10:05.356Z,7.40
2017-11-15T02:12:34.949Z,7.30
2017-11-15T02:15:03.236Z,7.30
2017-11-15T02:17:32.375Z,7.40
2017-11-15T02:20:00.745Z,7.40
2017-11-15T02:22:29.106Z,7.30
2017-11-15T02:24:57.385Z,7.30
2017-11-15T02:27:25.676Z,7.30
2017-11-15T02:29:54.002Z,7.40
2017-11-15T02:32:22.289Z,7.40
2017-11-15T02:34:51.909Z,7.30
2017-11-15T02:37:20.223Z,7.30
2017-11-15T02:39:48.622Z,7.30
2017-11-15T02:42:16.985Z,7.40
2017-11-15T02:44:45.279Z,7.40
2017-11-15T02:47:13.568Z,7.40
2017-11-15T02:49:41.904Z,7.30
2017-11-15T02:52:10.221Z,7.40
2017-11-15T02:54:38.921Z,7.40
2017-11-15T02:57:07.237Z,7.50
2017-11-15T02:59:36.265Z,7.40
2017-11-15T03:02:05.340Z,7.30
2017-11-15T03:04:35.411Z,7.30
2017-11-15T03:07:04.464Z,7.30
2017-11-15T03:09:32.860Z,7.30
2017-11-15T03:12:01.155Z,7.30
2017-11-15T03:14:29.452Z,7.30
2017-11-15T03:16:57.807Z,7.30
2017-11-15T03:19:27.052Z,7.30
2017-11-15T03:21:55.332Z,7.30
2017-11-15T03:24:23.748Z,7.30
2017-11-15T03:26:52.041Z,7.30
2017-11-15T03:29:20.380Z,7.30
2017-11-15T03:31:48.681Z,7.30
2017-11-15T03:34:17.015Z,7.30
2017-11-15T03:36:45.329Z,7.30
2017-11-15T03:39:13.645Z,7.30
2017-11-15T03:41:41.928Z,7.30
2017-11-15T03:44:10.257Z,7.30
2017-11-15T03:46:38.547Z,7.20
2017-11-15T03:49:08.484Z,7.30
2017-11-15T03:51:36.789Z,7.20
2017-11-15T03:54:05.847Z,7.20
2017-11-15T03:56:34.162Z,7.20
2017-11-15T03:59:02.556Z,7.20
2017-11-15T04:01:31.923Z,7.20
2017-11-15T04:04:00.202Z,7.20
2017-11-15T04:06:28.516Z,7.30
2017-11-15T04:08:56.936Z,7.30
2017-11-15T04:11:25.320Z,7.30
2017-11-15T04:13:56.341Z,7.30
2017-11-15T04:16:24.670Z,7.30
2017-11-15T04:18:53.063Z,7.30
2017-11-15T04:21:21.351Z,7.20
2017-11-15T04:23:49.739Z,7.20
2017-11-15T04:26:18.029Z,7.20
2017-11-15T04:28:46.458Z,7.20
2017-11-15T04:31:14.741Z,7.30
2017-11-15T04:33:43.801Z,7.20
2017-11-15T04:36:12.144Z,7.20
2017-11-15T04:38:40.448Z,7.30
2017-11-15T04:41:08.764Z,7.20
2017-11-15T04:43:37.054Z,7.30
2017-11-15T04:46:05.397Z,7.30
2017-11-15T04:48:34.452Z,7.40
2017-11-15T04:51:02.861Z,7.30
2017-11-15T04:53:31.156Z,7.30
2017-11-15T04:55:59.451Z,7.30
2017-11-15T04:58:27.803Z,7.40
2017-11-15T05:00:56.137Z,7.40
2017-11-15T05:03:24.416Z,7.40
2017-11-15T05:05:52.736Z,7.40
2017-11-15T05:08:21.060Z,7.40
2017-11-15T05:10:49.347Z,7.40
2017-11-15T05:13:17.679Z,7.40
2017-11-15T05:15:46.895Z,7.30
2017-11-15T05:18:15.992Z,7.20
2017-11-15T05:20:44.290Z,7.20
2017-11-15T05:23:12.681Z,7.30
2017-11-15T05:25:41.838Z,7.40
2017-11-15T05:28:10.133Z,7.40
2017-11-15T05:30:38.452Z,7.30
2017-11-15T05:33:06.777Z,7.40
2017-11-15T05:35:35.840Z,7.40
2017-11-15T05:38:04.170Z,7.40
2017-11-15T05:40:33.237Z,7.30
2017-11-15T05:43:01.542Z,7.20
2017-11-15T05:45:30.684Z,7.30
2017-11-15T05:47:59.017Z,7.30
2017-11-15T05:50:27.300Z,7.40
2017-11-15T05:52:56.428Z,7.30
2017-11-15T05:55:24.759Z,7.50
2017-11-15T05:57:53.816Z,7.40
2017-11-15T06:00:23.006Z,7.40
2017-11-15T06:02:51.314Z,7.40
2017-11-15T06:05:19.645Z,7.40
2017-11-15T06:07:48.836Z,7.30
2017-11-15T06:10:18.593Z,7.30
2017-11-15T06:12:46.893Z,7.30
2017-11-15T06:15:15.142Z,7.30
2017-11-15T06:17:43.498Z,7.30
2017-11-15T06:20:12.628Z,7.40
2017-11-15T06:22:41.733Z,7.40
2017-11-15T06:25:10.845Z,7.40
2017-11-15T06:27:39.095Z,7.40
2017-11-15T06:30:07.409Z,7.40
2017-11-15T06:32:35.835Z,7.40
2017-11-15T06:35:06.176Z,7.40
2017-11-15T06:37:35.229Z,7.30
2017-11-15T06:40:03.440Z,7.30
2017-11-15T06:42:31.959Z,7.30
2017-11-15T06:45:01.052Z,7.40
2017-11-15T06:47:29.352Z,7.40
2017-11-15T06:49:57.672Z,7.40
2017-11-15T06:52:25.965Z,7.40
2017-11-15T06:54:54.287Z,7.40
2017-11-15T06:57:22.584Z,7.40
2017-11-15T06:59:50.903Z,7.30
2017-11-15T07:02:19.958Z,7.30
2017-11-15T07:04:50.539Z,7.30
2017-11-15T07:07:18.856Z,7.30
2017-11-15T07:09:47.940Z,7.40
2017-11-15T07:12:16.328Z,7.30
2017-11-15T07:14:44.828Z,7.40
2017-11-15T07:17:13.117Z,7.40
2017-11-15T07:19:41.500Z,7.40
2017-11-15T07:22:09.816Z,7.40
2017-11-15T07:24:38.912Z,7.40
2017-11-15T07:27:07.236Z,7.30
2017-11-15T07:29:35.528Z,7.40
2017-11-15T07:32:03.855Z,7.40
2017-11-15T07:34:32.264Z,7.30
2017-11-15T07:37:00.591Z,7.40
2017-11-15T07:39:28.921Z,7.40
2017-11-15T07:41:57.244Z,7.40
2017-11-15T07:44:26.380Z,7.50
2017-11-15T07:46:54.731Z,7.50
2017-11-15T07:49:23.020Z,7.60
2017-11-15T07:51:51.343Z,7.60
2017-11-15T07:54:19.647Z,7.60
2017-11-15T07:56:47.995Z,7.60
2017-11-15T07:59:16.287Z,7.60
2017-11-15T08:01:44.616Z,7.60
2017-11-15T08:04:12.937Z,7.60
2017-11-15T08:06:41.319Z,7.60
2017-11-15T08:09:09.620Z,7.60
2017-11-15T08:11:37.935Z,7.60
2017-11-15T08:14:06.245Z,7.60
2017-11-15T08:16:36.124Z,7.50
2017-11-15T08:19:04.535Z,7.50
2017-11-15T08:21:32.866Z,7.50
2017-11-15T08:24:01.188Z,7.50
2017-11-15T08:26:29.528Z,7.60
2017-11-15T08:28:57.819Z,7.60
2017-11-15T08:31:26.118Z,7.70
2017-11-15T08:33:54.440Z,7.70
2017-11-15T08:36:23.491Z,7.80
2017-11-15T08:38:51.844Z,7.80
2017-11-15T08:41:20.897Z,8.00
2017-11-15T08:43:49.213Z,7.90
2017-11-15T08:46:17.556Z,7.90
2017-11-15T08:48:45.844Z,7.90
2017-11-15T08:51:14.137Z,8.00
2017-11-15T08:53:42.465Z,8.00
2017-11-15T08:56:10.757Z,8.00
2017-11-15T08:58:39.069Z,8.00
2017-11-15T09:01:08.124Z,8.10
2017-11-15T09:03:36.440Z,8.10
2017-11-15T09:06:04.767Z,8.10
2017-11-15T09:08:33.052Z,8.00
2017-11-15T09:11:01.368Z,7.90
2017-11-15T09:13:29.684Z,7.90
2017-11-15T09:15:57.992Z,7.90
2017-11-15T09:18:26.306Z,7.80
2017-11-15T09:20:54.665Z,7.90
2017-11-15T09:23:22.988Z,7.90
2017-11-15T09:25:51.341Z,8.00
2017-11-15T09:28:19.672Z,8.10
2017-11-15T09:30:49.969Z,8.10
2017-11-15T09:33:18.303Z,8.10
2017-11-15T09:35:46.588Z,8.10
2017-11-15T09:38:15.028Z,8.20
2017-11-15T09:40:43.327Z,8.30
2017-11-15T09:43:13.145Z,8.20
2017-11-15T09:48:17.008Z,8.20
2017-11-15T09:50:46.077Z,8.20
2017-11-15T09:53:14.498Z,8.20
2017-11-15T09:55:43.568Z,8.20
2017-11-15T09:58:11.855Z,8.20
2017-11-15T10:00:40.163Z,8.40
2017-11-15T10:03:08.489Z,8.30
2017-11-15T10:05:37.580Z,8.40
2017-11-15T10:08:05.964Z,8.40
2017-11-15T10:10:34.357Z,8.50
2017-11-15T10:13:02.752Z,8.60
2017-11-15T10:15:31.076Z,8.70
2017-11-15T10:17:59.380Z,8.70
2017-11-15T10:20:27.667Z,8.70
2017-11-15T10:22:55.980Z,8.80
2017-11-15T10:25:24.272Z,8.90
2017-11-15T10:27:52.592Z,9.10
2017-11-15T10:30:20.891Z,9.10
2017-11-15T10:32:49.969Z,9.10
2017-11-15T10:35:18.277Z,9.10
2017-11-15T10:37:46.597Z,9.10
2017-11-15T10:40:14.888Z,9.20
2017-11-15T10:42:43.203Z,9.20
2017-11-15T10:45:11.576Z,9.20
2017-11-15T10:47:39.864Z,9.10
2017-11-15T10:50:08.164Z,9.20
2017-11-15T10:52:36.596Z,9.30
2017-11-15T10:55:04.945Z,9.40
2017-11-15T10:57:33.315Z,9.40
2017-11-15T11:00:02.375Z,9.40
2017-11-15T11:02:30.675Z,9.40
2017-11-15T11:04:59.832Z,9.50
2017-11-15T11:07:28.132Z,9.50
2017-11-15T11:09:56.424Z,9.70
2017-11-15T11:12:24.740Z,9.70
2017-11-15T11:14:53.040Z,9.70
2017-11-15T11:17:21.376Z,9.70
2017-11-15T11:19:49.693Z,9.60
2017-11-15T11:22:18.020Z,9.60
2017-11-15T11:24:46.312Z,9.50
2017-11-15T11:27:14.629Z,9.50
2017-11-15T11:29:42.922Z,9.40
2017-11-15T11:32:11.259Z,9.40
2017-11-15T11:34:39.553Z,9.40
2017-11-15T11:37:07.899Z,9.40
2017-11-15T11:39:36.228Z,9.40
2017-11-15T11:42:04.522Z,9.40
2017-11-15T11:44:34.380Z,9.30
2017-11-15T11:47:03.443Z,9.30
2017-11-15T11:49:31.824Z,9.30
2017-11-15T11:52:00.143Z,9.30
2017-11-15T11:54:28.528Z,9.40
2017-11-15T11:56:57.024Z,9.50
2017-11-15T11:59:25.318Z,9.60
2017-11-15T12:01:55.225Z,9.60
2017-11-15T12:04:23.549Z,9.60
2017-11-15T12:06:52.605Z,9.70
2017-11-15T12:09:20.932Z,9.70
2017-11-15T12:11:49.217Z,9.90
2017-11-15T12:14:17.544Z,9.90
2017-11-15T12:16:45.873Z,9.90
2017-11-15T12:19:14.187Z,9.90
2017-11-15T12:21:42.526Z,10.00
2017-11-15T12:24:10.889Z,10.10
2017-11-15T12:26:39.985Z,10.20
2017-11-15T12:29:08.276Z,10.20
2017-11-15T12:31:36.592Z,10.30
2017-11-15T12:34:04.880Z,10.30
2017-11-15T12:36:33.196Z,10.20
2017-11-15T12:39:01.486Z,10.10
2017-11-15T12:41:29.912Z,10.10
2017-11-15T12:43:58.244Z,10.10
2017-11-15T12:46:26.570Z,10.10
2017-11-15T12:48:54.865Z,10.10
2017-11-15T12:51:23.176Z,10.00
2017-11-15T12:53:51.461Z,9.90
2017-11-15T12:56:19.789Z,9.90
2017-11-15T12:58:48.141Z,9.80
2017-11-15T13:01:16.445Z,9.80
2017-11-15T13:03:44.824Z,9.70
2017-11-15T13:06:13.303Z,9.70
2017-11-15T13:08:41.593Z,9.60
2017-11-15T13:11:09.993Z,9.70
2017-11-15T13:13:38.383Z,9.70
2017-11-15T13:16:06.748Z,9.60
2017-11-15T13:18:35.063Z,9.60
2017-11-15T13:21:03.356Z,9.60
2017-11-15T13:23:31.684Z,9.50
2017-11-15T13:26:00.037Z,9.60
2017-11-15T13:28:29.106Z,9.70
2017-11-15T13:30:57.440Z,9.60
2017-11-15T13:33:25.723Z,9.60
2017-11-15T13:35:54.051Z,9.50
2017-11-15T13:38:22.379Z,9.50
2017-11-15T13:40:50.668Z,9.50
2017-11-15T13:43:19.080Z,9.50
2017-11-15T13:45:47.411Z,9.50
2017-11-15T13:48:15.700Z,9.50
2017-11-15T13:50:44.030Z,9.50
2017-11-15T13:53:12.360Z,9.50
2017-11-15T13:55:41.434Z,9.50
2017-11-15T13:58:09.755Z,9.50
2017-11-15T14:00:38.045Z,9.40
2017-11-15T14:03:07.140Z,9.50
2017-11-15T14:05:35.431Z,9.50
2017-11-15T14:08:03.764Z,9.60
2017-11-15T14:10:32.096Z,9.50
2017-11-15T14:13:00.456Z,9.50
2017-11-15T14:15:28.740Z,9.50
2017-11-15T14:17:57.026Z,9.50
2017-11-15T14:20:25.345Z,9.50
2017-11-15T14:22:53.634Z,9.50
2017-11-15T14:25:21.965Z,9.40
2017-11-15T14:27:51.020Z,9.40
2017-11-15T14:30:19.333Z,9.40
2017-11-15T14:32:47.620Z,9.30
2017-11-15T14:35:15.949Z,9.30
2017-11-15T14:37:44.281Z,9.30
2017-11-15T14:40:12.657Z,9.20
2017-11-15T14:42:40.958Z,9.20
2017-11-15T14:45:09.252Z,9.20
2017-11-15T14:47:37.656Z,9.20
2017-11-15T14:50:05.958Z,9.20
2017-11-15T14:52:34.255Z,9.20
2017-11-15T14:55:04.699Z,9.20
2017-11-15T14:57:33.748Z,9.10
2017-11-15T15:00:02.044Z,9.10
2017-11-15T15:02:30.456Z,9.10
2017-11-15T15:04:58.768Z,9.10
2017-11-15T15:07:27.065Z,9.10
2017-11-15T15:09:56.199Z,9.10
2017-11-15T15:12:24.488Z,9.10
2017-11-15T15:14:52.792Z,9.10
2017-11-15T15:17:21.109Z,9.10
2017-11-15T15:19:49.439Z,9.10
2017-11-15T15:22:18.524Z,9.20
2017-11-15T15:24:46.813Z,9.20
2017-11-15T15:27:15.140Z,9.10
2017-11-15T15:29:43.461Z,9.10
2017-11-15T15:32:11.785Z,9.10
2017-11-15T15:34:41.576Z,9.10
2017-11-15T15:37:09.936Z,9.10
2017-11-15T15:39:38.231Z,9.10
2017-11-15T15:42:06.521Z,9.10
2017-11-15T15:44:34.845Z,9.10
2017-11-15T15:47:03.143Z,9.10
2017-11-15T15:49:31.431Z,9.10
2017-11-15T15:51:59.760Z,9.10
2017-11-15T15:54:30.067Z,9.10
2017-11-15T15:56:58.368Z,9.10
2017-11-15T15:59:28.596Z,9.00
2017-11-15T16:01:56.880Z,9.00
2017-11-15T16:04:25.258Z,9.10
2017-11-15T16:06:53.580Z,9.00
2017-11-15T16:09:22.685Z,8.90
2017-11-15T16:11:51.748Z,8.90
2017-11-15T16:14:20.072Z,8.90
2017-11-15T16:16:48.367Z,9.00
2017-11-15T16:19:17.564Z,9.00
2017-11-15T16:21:47.368Z,9.00
2017-11-15T16:24:15.661Z,9.00
2017-11-15T16:26:43.970Z,9.00
2017-11-15T16:29:12.259Z,9.00
2017-11-15T16:31:40.585Z,9.00
2017-11-15T16:34:08.903Z,9.00
2017-11-15T16:36:37.223Z,9.00
2017-11-15T16:39:05.522Z,9.00
2017-11-15T16:41:33.835Z,9.00
2017-11-15T16:44:02.135Z,9.00
2017-11-15T16:46:30.460Z,9.00
2017-11-15T16:48:58.756Z,8.90
2017-11-15T16:51:27.235Z,8.90
2017-11-15T16:53:55.550Z,8.90
2017-11-15T16:56:23.859Z,9.00
2017-11-15T16:58:52.912Z,8.90
2017-11-15T17:01:21.239Z,8.90
2017-11-15T17:03:49.541Z,8.90
2017-11-15T17:06:17.860Z,8.90
2017-11-15T17:08:46.164Z,9.00
2017-11-15T17:11:14.706Z,9.00
2017-11-15T17:13:42.995Z,9.00
2017-11-15T17:16:11.289Z,9.00
2017-11-15T17:18:39.668Z,9.00
2017-11-15T17:21:07.955Z,9.00
2017-11-15T17:23:36.353Z,9.00
2017-11-15T17:26:04.676Z,8.90
2017-11-15T17:28:32.980Z,8.90
2017-11-15T17:31:01.345Z,8.90
2017-11-15T17:33:30.401Z,8.90
2017-11-15T17:35:58.706Z,8.90
2017-11-15T17:38:27.031Z,8.90
2017-11-15T17:40:56.119Z,8.90
2017-11-15T17:43:24.510Z,8.90
2017-11-15T17:45:52.837Z,8.90
2017-11-15T17:48:21.170Z,8.90
2017-11-15T17:50:49.491Z,8.90
2017-11-15T17:53:18.549Z,8.80
2017-11-15T17:55:46.863Z,8.80
2017-11-15T17:58:15.156Z,8.90
2017-11-15T18:00:44.989Z,8.90
2017-11-15T18:03:13.284Z,8.90
2017-11-15T18:05:41.600Z,8.80
2017-11-15T18:08:10.647Z,8.80
2017-11-15T18:10:38.972Z,8.80
2017-11-15T18:13:07.252Z,8.80
2017-11-15T18:15:35.635Z,8.90
2017-11-15T18:18:03.959Z,8.80
2017-11-15T18:20:33.012Z,8.90
2017-11-15T18:23:01.311Z,8.90
2017-11-15T18:25:29.627Z,9.00
2017-11-15T18:27:58.698Z,9.00
2017-11-15T18:30:27.013Z,9.00
2017-11-15T18:32:55.312Z,9.00
2017-11-15T18:35:25.635Z,8.90
2017-11-15T18:37:53.935Z,8.90
2017-11-15T18:40:23.024Z,8.90
2017-11-15T18:42:51.317Z,8.90
2017-11-15T18:45:19.624Z,9.00
2017-11-15T18:47:48.680Z,8.90
2017-11-15T18:50:16.992Z,8.90
2017-11-15T18:52:45.607Z,8.90
2017-11-15T18:55:13.915Z,8.90
2017-11-15T18:57:42.979Z,8.90
2017-11-15T19:00:11.299Z,8.90
2017-11-15T19:02:40.359Z,8.90
2017-11-15T19:05:08.772Z,8.90
2017-11-15T19:07:37.111Z,8.90
2017-11-15T19:10:05.517Z,8.90
2017-11-15T19:12:33.828Z,8.90
2017-11-15T19:15:02.237Z,8.90
2017-11-15T19:17:30.560Z,8.90
2017-11-15T19:20:00.664Z,9.00
2017-11-15T19:22:28.952Z,9.00
2017-11-15T19:24:57.259Z,9.00
2017-11-15T19:27:26.315Z,8.90
2017-11-15T19:29:54.679Z,8.90
2017-11-15T19:32:22.976Z,8.90
2017-11-15T19:34:51.252Z,8.90
2017-11-15T19:37:19.560Z,8.80
2017-11-15T19:39:47.872Z,8.80
2017-11-15T19:42:16.165Z,8.80
2017-11-15T19:44:44.495Z,8.80
2017-11-15T19:47:13.555Z,8.80
2017-11-15T19:49:41.872Z,8.80
2017-11-15T19:52:10.187Z,8.70
2017-11-15T19:54:39.314Z,8.80
2017-11-15T19:57:07.622Z,8.80
2017-11-15T19:59:36.047Z,8.80
2017-11-15T20:02:04.440Z,8.90
2017-11-15T20:04:34.061Z,8.80
2017-11-15T20:07:02.400Z,8.80
2017-11-15T20:09:30.728Z,8.80
2017-11-15T20:11:59.031Z,8.90
2017-11-15T20:14:27.328Z,9.00
2017-11-15T20:16:56.414Z,9.00
2017-11-15T20:19:24.736Z,9.00
2017-11-15T20:21:53.819Z,9.00
2017-11-15T20:24:22.135Z,8.90
2017-11-15T20:26:50.433Z,8.90
2017-11-15T20:29:18.772Z,8.90
2017-11-15T20:31:47.067Z,8.90
2017-11-15T20:34:15.377Z,8.90
2017-11-15T20:36:44.439Z,9.00
2017-11-15T20:39:12.751Z,9.00
2017-11-15T20:41:41.051Z,9.00
2017-11-15T20:44:09.364Z,9.00
2017-11-15T20:46:37.657Z,9.10
2017-11-15T20:49:05.984Z,9.00
2017-11-15T20:51:34.300Z,9.10
2017-11-15T20:54:02.789Z,9.10
2017-11-15T20:56:31.081Z,9.10
2017-11-15T20:58:59.368Z,9.10
2017-11-15T21:01:27.699Z,9.10
2017-11-15T21:03:55.995Z,9.10
2017-11-15T21:06:24.327Z,9.20
2017-11-15T21:08:52.631Z,9.20
2017-11-15T21:11:22.109Z,9.20
2017-11-15T21:13:50.444Z,9.10
2017-11-15T21:16:19.826Z,9.10
2017-11-15T21:18:48.111Z,9.20
2017-11-15T21:21:16.435Z,9.20
2017-11-15T21:23:44.767Z,9.10
2017-11-15T21:26:13.109Z,9.10
2017-11-15T21:28:41.500Z,9.20
2017-11-15T21:31:09.826Z,9.10
2017-11-15T21:33:38.166Z,9.20
2017-11-15T21:36:07.272Z,9.20
2017-11-15T21:38:35.591Z,9.20
2017-11-15T21:41:03.905Z,9.20
2017-11-15T21:43:32.220Z,9.20
2017-11-15T21:46:00.516Z,9.20
2017-11-15T21:48:28.837Z,9.20
2017-11-15T21:50:58.961Z,9.30
2017-11-15T21:53:27.356Z,9.20
2017-11-15T21:55:57.084Z,9.20
2017-11-15T21:58:25.552Z,9.20
2017-11-15T22:00:53.841Z,9.30
2017-11-15T22:03:22.155Z,9.20
2017-11-15T22:05:50.490Z,9.20
2017-11-15T22:08:18.837Z,9.20
2017-11-15T22:10:48.636Z,9.20
2017-11-15T22:13:17.039Z,9.20
2017-11-15T22:15:46.628Z,9.20
2017-11-15T22:18:14.940Z,9.10
2017-11-15T22:20:43.289Z,9.10
2017-11-15T22:23:11.637Z,9.20
2017-11-15T22:25:41.064Z,9.20
2017-11-15T22:28:10.230Z,9.20
2017-11-15T22:30:38.590Z,9.20
2017-11-15T22:33:06.940Z,9.30
2017-11-15T22:35:35.268Z,9.30
2017-11-15T22:38:03.616Z,9.20
2017-11-15T22:40:31.934Z,9.30
2017-11-15T22:43:01.025Z,9.20
2017-11-15T22:45:29.354Z,9.20
2017-11-15T22:47:57.644Z,9.20
2017-11-15T22:50:25.956Z,9.20
2017-11-15T22:52:54.273Z,9.30
2017-11-15T22:55:22.568Z,9.30
2017-11-15T22:57:50.944Z,9.20
2017-11-15T23:00:21.089Z,9.20
2017-11-15T23:02:49.523Z,9.30
2017-11-15T23:05:17.816Z,9.30
2017-11-15T23:07:46.109Z,9.20
2017-11-15T23:10:14.448Z,9.20
2017-11-15T23:12:42.780Z,9.20
2017-11-15T23:15:11.100Z,9.20
2017-11-15T23:17:39.428Z,9.20
2017-11-15T23:20:07.715Z,9.30
2017-11-15T23:22:36.816Z,9.30
2017-11-15T23:25:05.108Z,9.30
2017-11-15T23:27:34.900Z,9.20
2017-11-15T23:30:03.222Z,9.20
2017-11-15T23:32:31.554Z,9.20
2017-11-15T23:34:59.843Z,9.20
2017-11-15T23:37:28.180Z,9.30
2017-11-15T23:39:56.470Z,9.30
2017-11-15T23:42:24.780Z,9.30
2017-11-15T23:44:53.070Z,9.30
2017-11-15T23:47:22.168Z,9.20
2017-11-15T23:49:50.494Z,9.20
2017-11-15T23:52:18.824Z,9.30
2017-11-15T23:54:47.111Z,9.20
2017-11-15T23:57:15.435Z,9.20
2017-11-15T23:59:44.537Z,9.20
